Time;durP1;ratioP1;P1;durP2;ratioP2;P2;SDS_P1;SDS_P2;PMS_P1;PMS_P2;Temp;Humidity;BMP_temperature;BMP_pressure;BME280_temperature;BME280_humidity;BME280_pressure;Samples;Min_cycle;Max_cycle;Signal;HPM_P1;HPM_P2
2023/03/14 06:23:12;;;;;;;15.27;2.40;;;5.80;99.90;;;;;;5080551;27;2063397;-86
2023/03/14 06:25:59;;;;;;;18.65;2.42;;;5.30;99.90;;;;;;5108085;28;20059;-89
2023/03/14 06:28:45;;;;;;;17.30;2.58;;;5.20;99.90;;;;;;5109488;28;20047;-88
2023/03/14 06:31:32;;;;;;;14.02;2.03;;;5.10;99.90;;;;;;5085632;28;20062;-88
2023/03/14 06:34:18;;;;;;;14.02;1.70;;;5.00;99.90;;;;;;5107971;28;20059;-90
2023/03/14 06:37:04;;;;;;;14.35;1.52;;;5.10;99.90;;;;;;5089840;28;20495;-89
2023/03/14 06:39:50;;;;;;;10.52;1.30;;;5.00;99.90;;;;;;5090812;28;20077;-87
2023/03/14 06:42:37;;;;;;;5.10;1.02;;;4.80;99.90;;;;;;5112817;28;20048;-89
2023/03/14 06:45:23;;;;;;;10.18;1.73;;;4.80;99.90;;;;;;5117878;28;20472;-89
2023/03/14 06:48:09;;;;;;;12.82;2.25;;;4.70;99.90;;;;;;5075304;28;20047;-90
2023/03/14 06:50:55;;;;;;;8.35;1.15;;;4.70;99.90;;;;;;5075197;28;20062;-90
2023/03/14 06:53:41;;;;;;;9.50;2.25;;;4.70;99.90;;;;;;5089806;28;20507;-92
2023/03/14 06:56:27;;;;;;;11.35;2.30;;;4.70;99.90;;;;;;5099178;28;20407;-89
2023/03/14 06:59:14;;;;;;;9.23;0.85;;;4.60;99.90;;;;;;5076150;28;20059;-88
2023/03/14 07:02:00;;;;;;;7.18;1.00;;;4.70;99.90;;;;;;5107923;28;20056;-88
2023/03/14 07:04:46;;;;;;;11.48;1.92;;;4.60;99.90;;;;;;5108363;28;20039;-89
2023/03/14 07:07:32;;;;;;;11.48;3.63;;;4.60;99.90;;;;;;5097399;28;20059;-86
2023/03/14 07:10:18;;;;;;;9.80;1.75;;;4.70;99.90;;;;;;5100745;28;20116;-88
2023/03/14 07:13:04;;;;;;;14.13;1.80;;;4.60;99.90;;;;;;5095485;28;20044;-90
2023/03/14 07:15:50;;;;;;;12.93;1.20;;;4.60;99.90;;;;;;5113963;28;20125;-89
2023/03/14 07:18:37;;;;;;;7.13;1.70;;;4.60;99.90;;;;;;5100832;28;20052;-89
2023/03/14 07:21:23;;;;;;;15.93;1.98;;;4.70;99.90;;;;;;5107746;28;20132;-88
2023/03/14 07:24:09;;;;;;;13.20;1.90;;;4.70;99.90;;;;;;5114202;28;20392;-88
2023/03/14 07:26:55;;;;;;;7.63;1.25;;;4.80;99.90;;;;;;5106844;28;20047;-88
2023/03/14 07:29:41;;;;;;;9.00;2.13;;;4.80;99.90;;;;;;5094038;28;20047;-87
2023/03/14 07:32:27;;;;;;;6.95;1.60;;;4.80;99.90;;;;;;5087727;28;20396;-87
2023/03/14 07:35:13;;;;;;;12.18;1.50;;;4.80;99.90;;;;;;5061773;28;20404;-86
2023/03/14 07:37:59;;;;;;;10.38;1.80;;;4.90;99.90;;;;;;5101440;28;20063;-86
2023/03/14 07:40:45;;;;;;;16.58;3.42;;;4.90;99.90;;;;;;5074157;28;20043;-87
2023/03/14 07:43:32;;;;;;;7.95;1.33;;;4.90;99.90;;;;;;5091870;28;20047;-87
2023/03/14 07:46:18;;;;;;;10.85;1.45;;;4.90;99.90;;;;;;5074268;28;20134;-87
2023/03/14 07:49:04;;;;;;;15.20;2.88;;;4.90;99.90;;;;;;5075202;28;20081;-88
2023/03/14 07:51:50;;;;;;;13.65;1.77;;;5.00;99.90;;;;;;5073927;28;20094;-87
2023/03/14 07:54:37;;;;;;;12.70;2.70;;;5.00;99.90;;;;;;5077267;28;20051;-87
2023/03/14 07:57:24;;;;;;;10.77;1.27;;;5.00;99.90;;;;;;5077720;28;20495;-89
2023/03/14 08:00:10;;;;;;;11.82;1.88;;;5.00;99.90;;;;;;5069068;28;20059;-89
2023/03/14 08:02:56;;;;;;;9.95;1.65;;;5.00;99.90;;;;;;5091285;28;20059;-88
2023/03/14 08:05:43;;;;;;;11.88;2.60;;;5.00;99.90;;;;;;5060897;28;20060;-88
2023/03/14 08:08:29;;;;;;;11.10;2.10;;;5.10;99.90;;;;;;5094045;28;20043;-88
2023/03/14 08:11:15;;;;;;;15.82;1.85;;;5.20;99.90;;;;;;5093247;28;20156;-89
2023/03/14 08:14:01;;;;;;;12.10;1.85;;;5.30;99.90;;;;;;5091378;28;20107;-87
2023/03/14 08:16:47;;;;;;;11.20;2.20;;;5.30;99.90;;;;;;5092549;28;20051;-87
2023/03/14 08:19:33;;;;;;;21.30;4.07;;;5.30;99.90;;;;;;5094872;28;20056;-86
2023/03/14 08:22:20;;;;;;;12.57;1.85;;;5.40;99.90;;;;;;5075845;28;20492;-86
2023/03/14 08:25:06;;;;;;;20.08;3.22;;;5.40;99.90;;;;;;5099403;28;20131;-87
2023/03/14 08:27:53;;;;;;;15.25;2.80;;;5.50;99.90;;;;;;5072403;28;20048;-87
2023/03/14 08:30:39;;;;;;;25.45;3.65;;;5.60;99.90;;;;;;5070574;28;20058;-86
2023/03/14 08:33:27;;;;;;;26.45;3.42;;;5.70;99.90;;;;;;5055425;28;20101;-86
2023/03/14 08:36:13;;;;;;;30.25;3.63;;;5.70;99.90;;;;;;5070544;28;20087;-87
2023/03/14 08:38:59;;;;;;;21.02;3.72;;;5.90;99.90;;;;;;5071855;28;20075;-87
2023/03/14 08:41:45;;;;;;;19.00;3.33;;;6.00;99.90;;;;;;5070330;28;20067;-87
2023/03/14 08:44:32;;;;;;;23.13;3.92;;;6.00;99.90;;;;;;5039128;28;20056;-87
2023/03/14 08:47:19;;;;;;;25.92;4.68;;;6.10;99.90;;;;;;5044533;28;20059;-87
2023/03/14 08:50:06;;;;;;;19.98;4.13;;;6.20;99.90;;;;;;5077450;28;20509;-86
2023/03/14 08:52:52;;;;;;;20.35;5.63;;;6.20;99.90;;;;;;5055608;28;20051;-89
2023/03/14 08:55:38;;;;;;;32.38;4.05;;;6.20;99.90;;;;;;5071725;28;20049;-88
2023/03/14 08:58:24;;;;;;;21.90;3.13;;;6.20;99.90;;;;;;5062282;28;20464;-89
2023/03/14 09:01:11;;;;;;;24.08;4.22;;;6.10;99.90;;;;;;5070537;28;20044;-88
2023/03/14 09:03:57;;;;;;;27.48;3.55;;;6.00;99.90;;;;;;5070933;28;20040;-88
2023/03/14 09:06:43;;;;;;;20.70;4.68;;;6.00;99.90;;;;;;5056802;28;20800;-89
2023/03/14 09:09:30;;;;;;;20.70;3.53;;;6.00;99.90;;;;;;5070590;28;20380;-88
2023/03/14 09:12:16;;;;;;;17.30;4.05;;;6.10;99.90;;;;;;5055744;28;20052;-86
2023/03/14 09:15:05;;;;;;;18.35;5.43;;;6.30;99.90;;;;;;5079237;28;20047;-88
2023/03/14 09:17:51;;;;;;;17.55;3.22;;;6.30;99.90;;;;;;5078900;28;20506;-88
2023/03/14 09:20:37;;;;;;;23.35;4.28;;;6.40;99.90;;;;;;5072863;28;20112;-88
2023/03/14 09:23:23;;;;;;;24.65;3.47;;;6.30;99.90;;;;;;5048393;28;20532;-89
2023/03/14 09:26:09;;;;;;;16.77;4.00;;;6.20;99.90;;;;;;5032264;28;20056;-87
2023/03/14 09:28:55;;;;;;;21.35;3.47;;;6.20;99.90;;;;;;5032272;28;20056;-87
2023/03/14 09:31:41;;;;;;;23.15;3.42;;;6.20;99.90;;;;;;5031246;28;20500;-87
2023/03/14 09:34:27;;;;;;;22.80;4.85;;;6.20;99.90;;;;;;5050483;28;20555;-87
2023/03/14 09:37:16;;;;;;;23.92;2.75;;;6.30;99.90;;;;;;5037650;28;20053;-88
2023/03/14 09:40:09;;;;;;;30.40;4.50;;;6.50;99.90;;;;;;5050400;28;20489;-87
2023/03/14 09:42:55;;;;;;;20.48;4.93;;;6.50;99.90;;;;;;5037472;28;20132;-89
2023/03/14 09:45:43;;;;;;;21.00;3.90;;;6.50;99.90;;;;;;5059751;28;20067;-88
2023/03/14 09:48:32;;;;;;;24.08;3.25;;;6.60;99.90;;;;;;5052142;28;20045;-88
2023/03/14 09:51:23;;;;;;;19.13;2.70;;;6.80;99.90;;;;;;5035732;28;20088;-88
2023/03/14 09:54:24;;;;;;;15.43;3.45;;;6.90;99.90;;;;;;5042883;28;20156;-89
2023/03/14 09:57:15;;;;;;;14.63;2.67;;;7.00;99.90;;;;;;5050036;28;20049;-87
2023/03/14 10:00:13;;;;;;;15.88;2.88;;;7.30;99.90;;;;;;5032585;28;20135;-88
2023/03/14 10:03:11;;;;;;;18.27;2.97;;;7.50;99.90;;;;;;5031686;28;20556;-89
2023/03/14 10:05:58;;;;;;;18.50;2.47;;;7.60;99.90;;;;;;5050471;28;20057;-89
2023/03/14 10:08:45;;;;;;;17.98;2.80;;;7.70;99.90;;;;;;5032665;28;20051;-88
2023/03/14 10:11:31;;;;;;;18.42;2.22;;;7.70;99.90;;;;;;5039176;28;20057;-87
2023/03/14 10:14:34;;;;;;;14.95;2.33;;;8.00;99.90;;;;;;5038388;28;20044;-90
2023/03/14 10:17:21;;;;;;;15.27;2.80;;;8.20;99.90;;;;;;5043243;28;20048;-87
2023/03/14 10:20:34;;;;;;;26.58;3.22;;;8.20;99.90;;;;;;5060125;28;20049;-89
2023/03/14 10:23:28;;;;;;;19.80;3.38;;;8.00;99.90;;;;;;5068613;28;20140;-88
2023/03/14 10:26:16;;;;;;;13.00;1.92;;;8.10;99.90;;;;;;5052433;28;20058;-88
2023/03/14 10:29:12;;;;;;;12.82;2.08;;;7.90;99.90;;;;;;5069379;28;20452;-90
2023/03/14 10:32:07;;;;;;;;;;;7.70;99.90;;;;;;5069054;28;20053;-88
2023/03/14 10:35:08;;;;;;;12.90;2.10;;;8.00;99.90;;;;;;5078536;28;19990;-87
2023/03/14 10:38:01;;;;;;;12.52;2.80;;;8.30;99.90;;;;;;5070261;28;20048;-87
2023/03/14 10:40:51;;;;;;;17.33;3.95;;;8.70;99.90;;;;;;5071320;28;20102;-87
2023/03/14 10:43:44;;;;;;;10.07;2.03;;;8.90;99.90;;;;;;5058473;28;20139;-86
2023/03/14 10:46:33;;;;;;;26.88;3.92;;;8.70;98.80;;;;;;5039998;28;20049;-88
2023/03/14 10:49:36;;;;;;;10.80;2.10;;;8.50;99.20;;;;;;5070264;28;20428;-89
2023/03/14 10:52:25;;;;;;;16.25;2.20;;;8.30;97.60;;;;;;5045433;28;20048;-88
2023/03/14 10:55:12;;;;;;;15.68;2.10;;;8.00;97.50;;;;;;5052297;28;20056;-88
2023/03/14 10:57:58;;;;;;;14.00;1.92;;;7.80;97.60;;;;;;5039599;28;20044;-88
2023/03/14 11:00:50;;;;;;;14.73;2.45;;;8.20;99.30;;;;;;5055735;28;20049;-88
2023/03/14 11:03:40;;;;;;;8.23;1.98;;;8.90;98.80;;;;;;5070176;28;20110;-88
2023/03/14 11:06:35;;;;;;;14.25;2.13;;;9.20;98.70;;;;;;5069176;28;20071;-88
2023/03/14 11:09:32;;;;;;;8.83;2.17;;;9.40;95.10;;;;;;5058699;28;20045;-87
2023/03/14 11:12:35;;;;;;;13.48;2.30;;;9.60;94.70;;;;;;5072901;28;20295;-87
2023/03/14 11:15:33;;;;;;;12.52;2.47;;;9.80;95.80;;;;;;5080020;28;20070;-87
2023/03/14 11:18:44;;;;;;;12.70;1.50;;;10.10;95.30;;;;;;5081791;28;20057;-88
2023/03/14 11:21:50;;;;;;;7.78;1.67;;;10.20;94.50;;;;;;5072354;28;20053;-88
2023/03/14 11:25:08;;;;;;;8.65;1.80;;;10.50;94.50;;;;;;5071729;28;20056;-90
2023/03/14 11:28:00;;;;;;;14.43;3.03;;;10.50;93.90;;;;;;5043446;28;20540;-87
2023/03/14 11:30:49;;;;;;;12.13;1.75;;;10.80;94.50;;;;;;5070786;28;20049;-87
2023/03/14 11:33:38;;;;;;;13.20;1.70;;;10.90;93.90;;;;;;5054552;28;20095;-88
2023/03/14 11:36:35;;;;;;;12.23;1.73;;;11.30;93.70;;;;;;5078690;28;20437;-91
2023/03/14 11:39:25;;;;;;;14.63;2.20;;;11.90;95.20;;;;;;5056304;28;20049;-87
2023/03/14 11:42:15;;;;;;;13.40;2.35;;;11.80;92.70;;;;;;5054962;28;20078;-89
2023/03/14 11:45:03;;;;;;;10.05;1.60;;;12.00;93.80;;;;;;5041301;28;20044;-90
2023/03/14 11:48:07;;;;;;;11.32;2.65;;;11.80;93.30;;;;;;5044751;28;20049;-88
2023/03/14 11:50:57;;;;;;;11.82;2.08;;;11.40;93.30;;;;;;5041425;28;20086;-88
2023/03/14 11:53:57;;;;;;;9.68;1.98;;;10.90;93.20;;;;;;5054806;28;20501;-88
2023/03/14 11:56:52;;;;;;;14.90;2.63;;;10.50;93.70;;;;;;5054859;28;20567;-86
2023/03/14 11:59:47;;;;;;;14.65;3.97;;;10.60;92.80;;;;;;5059971;28;20098;-87
2023/03/14 12:02:38;;;;;;;10.85;1.83;;;10.30;93.00;;;;;;5071460;28;20083;-88
2023/03/14 12:05:48;;;;;;;11.30;2.63;;;10.30;93.20;;;;;;5040733;28;20424;-88
2023/03/14 12:09:04;;;;;;;13.73;2.58;;;10.60;93.90;;;;;;5063253;28;20112;-88
2023/03/14 12:11:57;;;;;;;18.75;2.20;;;10.80;92.70;;;;;;5071228;28;20080;-90
2023/03/14 12:14:57;;;;;;;19.60;2.28;;;10.30;93.70;;;;;;5072160;28;20587;-89
2023/03/14 12:17:43;;;;;;;13.65;2.60;;;10.10;93.20;;;;;;5056994;28;20710;-87
2023/03/14 12:20:29;;;;;;;10.43;2.45;;;10.90;93.90;;;;;;5074683;28;20052;-87
2023/03/14 12:23:16;;;;;;;16.85;2.45;;;10.70;92.80;;;;;;5080740;28;20057;-87
2023/03/14 12:26:11;;;;;;;14.20;1.77;;;10.10;93.90;;;;;;5039035;28;20056;-90
2023/03/14 12:28:57;;;;;;;5.38;1.48;;;9.70;93.60;;;;;;5069798;28;20049;-87
2023/03/14 12:32:06;;;;;;;10.65;1.65;;;9.70;92.30;;;;;;5074429;28;20131;-91
2023/03/14 12:34:52;;;;;;;13.13;1.80;;;9.70;92.70;;;;;;5063489;28;20109;-89
2023/03/14 12:37:46;;;;;;;7.45;1.58;;;9.80;90.80;;;;;;5039833;28;20092;-89
2023/03/14 12:40:38;;;;;;;13.48;2.35;;;9.70;89.40;;;;;;5053259;28;20049;-89
2023/03/14 12:43:30;;;;;;;15.57;2.30;;;9.80;90.20;;;;;;5064925;28;20059;-89
2023/03/14 12:46:22;;;;;;;10.77;1.70;;;10.00;90.80;;;;;;5056114;28;20190;-88
2023/03/14 12:49:09;;;;;;;10.30;1.75;;;10.00;89.70;;;;;;5053531;28;20052;-87
2023/03/14 12:52:15;;;;;;;8.20;1.45;;;10.30;90.70;;;;;;5053948;28;20060;-89
2023/03/14 12:55:20;;;;;;;5.05;1.23;;;11.80;90.90;;;;;;5053964;28;20113;-89
2023/03/14 12:58:39;;;;;;;9.05;1.80;;;13.40;84.60;;;;;;5041415;28;20135;-89
2023/03/14 13:01:25;;;;;;;8.77;2.15;;;14.50;71.80;;;;;;5078600;28;20040;-88
2023/03/14 13:04:12;;;;;;;12.65;2.35;;;15.40;72.10;;;;;;5070539;28;20049;-88
2023/03/14 13:07:00;;;;;;;11.63;1.83;;;15.90;69.60;;;;;;5048420;28;20044;-91
2023/03/14 13:10:00;;;;;;;12.07;2.22;;;16.10;64.10;;;;;;5056606;28;20143;-88
2023/03/14 13:12:51;;;;;;;24.95;4.32;;;16.10;63.50;;;;;;5072451;28;20208;-87
2023/03/14 13:15:41;;;;;;;12.85;1.80;;;16.60;61.70;;;;;;5072477;28;20052;-88
2023/03/14 13:18:35;;;;;;;13.63;2.80;;;16.20;59.00;;;;;;5053121;28;20048;-89
2023/03/14 13:21:24;;;;;;;12.13;1.92;;;16.50;61.80;;;;;;5075486;28;20044;-89
2023/03/14 13:24:25;;;;;;;14.07;2.10;;;16.00;62.60;;;;;;5072774;28;20049;-89
2023/03/14 13:27:20;;;;;;;11.93;1.80;;;16.30;59.50;;;;;;5055104;28;20139;-88
2023/03/14 13:30:28;;;;;;;10.48;1.98;;;14.60;59.50;;;;;;5066524;28;20063;-89
2023/03/14 13:33:20;;;;;;;10.13;1.33;;;13.80;64.10;;;;;;5071288;28;20025;-88
2023/03/14 13:36:06;;;;;;;10.38;2.03;;;14.70;63.50;;;;;;5078663;28;20070;-88
2023/03/14 13:38:58;;;;;;;10.18;1.60;;;15.60;62.00;;;;;;5095360;28;20078;-89
2023/03/14 13:41:45;;;;;;;6.38;1.17;;;16.20;57.50;;;;;;5058956;28;20056;-87
2023/03/14 13:44:38;;;;;;;8.93;1.38;;;16.00;54.80;;;;;;5044930;28;20688;-89
2023/03/14 13:47:26;;;;;;;8.13;1.27;;;15.80;53.60;;;;;;5052061;28;20040;-89
2023/03/14 13:50:17;;;;;;;9.98;1.42;;;14.40;56.70;;;;;;5074803;28;20515;-87
2023/03/14 13:53:03;;;;;;;10.15;1.42;;;12.90;57.70;;;;;;5040075;28;20110;-88
2023/03/14 13:55:51;;;;;;;16.80;2.28;;;11.70;61.50;;;;;;5038560;28;20045;-88
2023/03/14 13:58:40;;;;;;;7.68;1.80;;;11.00;67.60;;;;;;5038967;28;20118;-88
2023/03/14 14:01:32;;;;;;;17.20;2.53;;;10.30;73.40;;;;;;5040125;28;20049;-89
2023/03/14 14:04:25;;;;;;;12.68;2.10;;;9.90;84.20;;;;;;5055381;28;20099;-89
2023/03/14 14:07:18;;;;;;;13.25;2.03;;;9.60;92.00;;;;;;5053582;28;20052;-88
2023/03/14 14:10:05;;;;;;;16.10;2.08;;;9.40;93.40;;;;;;5065294;28;20044;-90
2023/03/14 14:12:59;;;;;;;13.80;2.63;;;9.70;94.80;;;;;;5053780;28;20574;-90
2023/03/14 14:15:49;;;;;;;12.83;2.37;;;11.00;92.90;;;;;;5070539;28;20431;-88
2023/03/14 14:18:35;;;;;;;14.40;2.05;;;12.50;91.70;;;;;;5037420;28;20303;-87
2023/03/14 14:21:22;;;;;;;8.30;2.22;;;13.80;85.80;;;;;;5054434;28;20489;-89
2023/03/14 14:24:15;;;;;;;8.95;1.70;;;15.00;75.70;;;;;;5069973;28;20071;-91
2023/03/14 14:27:14;;;;;;;10.13;1.70;;;15.80;65.00;;;;;;5057489;28;20056;-89
2023/03/14 14:30:07;;;;;;;8.73;1.73;;;16.40;59.00;;;;;;5069464;28;20432;-89
2023/03/14 14:33:07;;;;;;;7.25;1.42;;;16.80;56.50;;;;;;5059133;28;20067;-88
2023/03/14 14:35:59;;;;;;;8.95;1.70;;;17.00;52.70;;;;;;5061380;28;20045;-91
2023/03/14 14:39:09;;;;;;;14.98;2.67;;;17.40;53.10;;;;;;5074553;28;20053;-90
2023/03/14 14:41:55;;;;;;;9.85;1.52;;;17.30;50.50;;;;;;5040066;28;20092;-88
2023/03/14 14:44:43;;;;;;;6.13;1.30;;;17.30;53.70;;;;;;5060059;28;20516;-90
2023/03/14 14:47:29;;;;;;;8.73;1.30;;;17.30;51.90;;;;;;5059054;28;20504;-90
2023/03/14 14:50:35;;;;;;;7.72;1.13;;;17.20;49.20;;;;;;5055432;28;20044;-91
2023/03/14 14:53:29;;;;;;;9.18;1.45;;;16.60;46.00;;;;;;5064029;28;20102;-88
2023/03/14 14:56:22;;;;;;;8.25;1.42;;;17.60;49.10;;;;;;5073891;28;20505;-89
2023/03/14 14:59:30;;;;;;;5.57;1.17;;;17.20;48.40;;;;;;5072558;28;20049;-90
2023/03/14 15:02:25;;;;;;;10.02;1.80;;;16.70;48.40;;;;;;5058684;28;20500;-88
2023/03/14 15:05:19;;;;;;;10.38;1.77;;;15.80;51.10;;;;;;5051938;28;20094;-89
2023/03/14 15:08:10;;;;;;;9.93;1.83;;;15.50;52.40;;;;;;5055340;28;20088;-90
2023/03/14 15:10:57;;;;;;;10.73;1.80;;;14.00;55.90;;;;;;5064638;28;20083;-89
2023/03/14 15:13:44;;;;;;;9.55;1.58;;;13.30;56.20;;;;;;5056562;28;20095;-90
2023/03/14 15:16:31;;;;;;;12.20;2.65;;;12.50;56.50;;;;;;5059770;28;20049;-89
2023/03/14 15:19:24;;;;;;;12.18;1.73;;;12.00;56.20;;;;;;5054899;28;20056;-88
2023/03/14 15:22:14;;;;;;;11.35;2.03;;;12.80;55.70;;;;;;5054747;28;20060;-89
2023/03/14 15:25:00;;;;;;;8.95;1.70;;;13.90;52.90;;;;;;5072619;28;20122;-90
2023/03/14 15:27:46;;;;;;;8.75;1.75;;;14.30;52.50;;;;;;5060167;28;20087;-89
2023/03/14 15:30:32;;;;;;;7.90;2.25;;;14.50;54.10;;;;;;5041456;28;20052;-89
2023/03/14 15:33:19;;;;;;;12.98;1.85;;;14.60;54.60;;;;;;5072963;28;20493;-90
2023/03/14 15:36:17;;;;;;;10.77;2.22;;;14.90;55.50;;;;;;5075016;28;20055;-88
2023/03/14 15:39:07;;;;;;;15.55;2.10;;;14.00;55.90;;;;;;5042167;28;20055;-89
2023/03/14 15:41:53;;;;;;;13.57;3.78;;;13.00;61.80;;;;;;5060482;28;20485;-90
2023/03/14 15:44:39;;;;;;;13.48;2.67;;;11.30;70.30;;;;;;5062653;28;20051;-89
2023/03/14 15:47:27;;;;;;;18.25;2.50;;;10.20;87.60;;;;;;5067051;28;20075;-89
2023/03/14 15:50:13;;;;;;;15.30;2.13;;;9.40;91.90;;;;;;5042155;28;20131;-88
2023/03/14 15:52:59;;;;;;;12.20;1.67;;;9.80;92.00;;;;;;5054785;28;20112;-87
2023/03/14 15:55:45;;;;;;;10.73;2.10;;;9.70;91.20;;;;;;5051016;28;20052;-89
2023/03/14 15:58:33;;;;;;;10.18;2.03;;;10.30;90.60;;;;;;5062482;28;20577;-90
2023/03/14 16:01:19;;;;;;;11.50;2.58;;;10.60;88.70;;;;;;5044889;28;20040;-89
2023/03/14 16:04:06;;;;;;;12.98;2.00;;;10.30;88.30;;;;;;5060767;28;20057;-89
2023/03/14 16:06:52;;;;;;;11.70;1.80;;;10.20;90.10;;;;;;5075131;28;20048;-88
2023/03/14 16:09:38;;;;;;;15.57;3.05;;;9.90;89.70;;;;;;5073703;28;20045;-89
2023/03/14 16:12:24;;;;;;;13.30;2.00;;;9.50;90.80;;;;;;5057294;28;20155;-89
2023/03/14 16:15:10;;;;;;;11.63;1.95;;;9.00;92.40;;;;;;5072274;28;20044;-89
2023/03/14 16:17:56;;;;;;;8.23;2.33;;;8.50;92.60;;;;;;5078224;28;20052;-88
2023/03/14 16:20:42;;;;;;;13.43;3.40;;;8.70;93.40;;;;;;5081100;28;20131;-88
2023/03/14 16:23:29;;;;;;;10.32;1.30;;;9.10;92.70;;;;;;5079968;28;20076;-88
2023/03/14 16:26:18;;;;;;;9.30;1.77;;;9.40;88.50;;;;;;5067627;28;20052;-88
2023/03/14 16:29:04;;;;;;;7.03;2.08;;;9.50;83.80;;;;;;5076547;28;20071;-89
2023/03/14 16:31:50;;;;;;;14.90;1.55;;;9.40;81.40;;;;;;5043132;28;20504;-87
2023/03/14 16:34:39;;;;;;;8.35;1.50;;;8.70;83.90;;;;;;5057397;28;20056;-88
2023/03/14 16:37:26;;;;;;;9.60;2.20;;;8.20;90.00;;;;;;5043671;28;20063;-89
2023/03/14 16:40:12;;;;;;;9.07;1.58;;;7.70;91.40;;;;;;5068108;28;20052;-87
2023/03/14 16:42:58;;;;;;;8.48;1.02;;;7.30;93.80;;;;;;5062215;28;20079;-86
2023/03/14 16:45:45;;;;;;;14.50;2.60;;;6.90;94.60;;;;;;5074124;28;20205;-89
2023/03/14 16:48:31;;;;;;;16.63;2.22;;;6.40;99.90;;;;;;5073106;28;20134;-89
2023/03/14 16:51:18;;;;;;;9.68;2.55;;;5.90;99.90;;;;;;5056729;28;20087;-89
2023/03/14 16:54:04;;;;;;;10.23;1.95;;;5.50;99.90;;;;;;5071717;28;20132;-88
2023/03/14 16:56:52;;;;;;;12.68;2.05;;;5.20;99.90;;;;;;5071990;28;20044;-87
2023/03/14 16:59:38;;;;;;;11.10;2.10;;;5.00;99.90;;;;;;5063611;28;20112;-87
2023/03/14 17:02:24;;;;;;;8.23;0.88;;;4.70;99.90;;;;;;5063121;28;20057;-88
2023/03/14 17:05:11;;;;;;;10.63;1.17;;;4.50;99.90;;;;;;5087040;28;20059;-88
2023/03/14 17:07:57;;;;;;;9.90;1.67;;;4.50;99.90;;;;;;5073784;28;20048;-87
2023/03/14 17:10:43;;;;;;;5.45;0.93;;;4.50;99.90;;;;;;5056321;28;20201;-88
2023/03/14 17:13:29;;;;;;;7.70;1.27;;;4.50;99.90;;;;;;5042086;28;20146;-87
2023/03/14 17:16:16;;;;;;;6.13;1.75;;;4.40;99.90;;;;;;5071962;28;20048;-88
2023/03/14 17:19:02;;;;;;;7.70;1.00;;;4.30;99.90;;;;;;5073867;28;20130;-87
2023/03/14 17:21:48;;;;;;;5.55;1.35;;;4.20;99.90;;;;;;5052208;28;20532;-87
2023/03/14 17:24:36;;;;;;;7.05;1.30;;;4.20;99.90;;;;;;5074228;28;20047;-87
2023/03/14 17:27:22;;;;;;;10.07;1.92;;;4.10;99.90;;;;;;5056622;28;20059;-88
2023/03/14 17:30:09;;;;;;;6.53;1.40;;;4.00;99.90;;;;;;5040401;28;20044;-87
2023/03/14 17:32:55;;;;;;;11.85;1.20;;;4.00;99.90;;;;;;5074318;28;20473;-89
2023/03/14 17:35:43;;;;;;;13.30;2.72;;;3.90;99.90;;;;;;5081735;28;20052;-89
2023/03/14 17:38:29;;;;;;;7.85;2.63;;;3.90;99.90;;;;;;5062078;28;20110;-87
2023/03/14 17:41:15;;;;;;;7.32;1.25;;;3.90;99.90;;;;;;5072438;28;20044;-88
2023/03/14 17:44:02;;;;;;;14.77;2.33;;;3.90;99.90;;;;;;5027535;28;20132;-89
2023/03/14 17:46:48;;;;;;;16.65;2.10;;;3.90;99.90;;;;;;5053775;28;20167;-88
2023/03/14 17:49:35;;;;;;;10.32;1.40;;;3.80;99.90;;;;;;5058547;28;20444;-88
2023/03/14 17:52:21;;;;;;;5.72;1.40;;;3.80;99.90;;;;;;5056518;28;20049;-90
2023/03/14 17:55:08;;;;;;;10.75;2.67;;;3.80;99.90;;;;;;5070677;28;20063;-89
2023/03/14 17:57:54;;;;;;;8.63;1.60;;;3.80;99.90;;;;;;5052957;28;20139;-87
2023/03/14 18:00:40;;;;;;;11.52;1.88;;;3.70;99.90;;;;;;5065573;28;20056;-87
2023/03/14 18:03:26;;;;;;;8.70;1.30;;;3.70;99.90;;;;;;5057779;28;20059;-89
2023/03/14 18:06:14;;;;;;;11.85;2.97;;;3.70;99.90;;;;;;5059327;28;20048;-88
2023/03/14 18:09:03;;;;;;;8.15;1.58;;;3.60;99.90;;;;;;5051856;28;20056;-89
2023/03/14 18:11:49;;;;;;;12.80;2.13;;;3.50;99.90;;;;;;5039244;28;20110;-87
2023/03/14 18:14:36;;;;;;;14.35;2.25;;;3.50;99.90;;;;;;5069991;28;20059;-89
2023/03/14 18:17:22;;;;;;;9.95;2.20;;;3.50;99.90;;;;;;5037330;28;20404;-88
2023/03/14 18:20:11;;;;;;;10.77;1.98;;;3.40;99.90;;;;;;5051467;28;20481;-87
2023/03/14 19:02:15;;;;;;;12.38;2.15;;;3.40;99.90;;;;;;5068259;28;20055;-88
2023/03/14 19:05:01;;;;;;;10.43;1.98;;;3.50;99.90;;;;;;5069769;28;20056;-88
2023/03/14 19:07:47;;;;;;;12.25;1.85;;;3.50;99.90;;;;;;5037898;28;20097;-89
2023/03/14 19:10:33;;;;;;;9.57;2.00;;;3.60;99.90;;;;;;5072348;28;20396;-90
2023/03/14 19:13:21;;;;;;;15.77;2.97;;;3.60;99.90;;;;;;5055173;28;20052;-87
2023/03/14 19:16:09;;;;;;;13.32;1.85;;;3.60;99.90;;;;;;5040137;28;20048;-88
2023/03/14 19:18:56;;;;;;;17.48;3.00;;;3.80;99.90;;;;;;5073800;28;20509;-89
2023/03/14 19:21:43;;;;;;;11.80;2.40;;;3.90;99.90;;;;;;5058763;28;20048;-88
2023/03/14 19:24:29;;;;;;;11.00;1.80;;;3.90;99.90;;;;;;5054465;28;20044;-91
2023/03/14 19:27:15;;;;;;;13.77;2.30;;;4.00;99.90;;;;;;5070923;28;20056;-89
2023/03/14 19:30:01;;;;;;;13.48;2.03;;;4.10;99.90;;;;;;5079566;28;20075;-87
2023/03/14 19:32:48;;;;;;;17.02;2.35;;;4.30;99.90;;;;;;5072077;28;20453;-88
2023/03/14 19:35:34;;;;;;;11.35;1.85;;;4.40;99.90;;;;;;5070371;28;20059;-88
2023/03/14 19:38:20;;;;;;;17.60;2.08;;;4.50;99.90;;;;;;5072136;28;20515;-89
2023/03/14 19:41:06;;;;;;;11.00;1.90;;;4.50;99.90;;;;;;5053637;28;20083;-89
2023/03/14 19:43:52;;;;;;;15.98;3.60;;;4.50;99.90;;;;;;5069781;28;20051;-87
2023/03/14 19:46:38;;;;;;;7.53;1.55;;;4.50;99.90;;;;;;5086972;28;20052;-88
2023/03/14 19:49:26;;;;;;;15.52;2.03;;;4.40;99.90;;;;;;5087523;28;20139;-87
2023/03/14 19:52:13;;;;;;;10.38;2.60;;;4.40;99.90;;;;;;5076126;28;20094;-88
2023/03/14 19:55:00;;;;;;;10.93;1.80;;;4.50;99.90;;;;;;5058265;28;20412;-85
2023/03/14 19:57:47;;;;;;;15.32;2.17;;;4.50;99.90;;;;;;5075751;28;20123;-87
2023/03/14 20:00:33;;;;;;;10.25;1.88;;;4.50;99.90;;;;;;5062143;28;20199;-87
2023/03/14 20:03:22;;;;;;;16.73;2.05;;;4.50;99.90;;;;;;5067143;28;20128;-89
2023/03/14 20:06:11;;;;;;;16.25;3.42;;;4.50;99.90;;;;;;5046815;28;20040;-89
2023/03/14 20:08:58;;;;;;;11.23;2.08;;;4.60;99.90;;;;;;5047179;28;20048;-88
2023/03/14 20:11:47;;;;;;;13.38;1.90;;;4.50;99.90;;;;;;5066120;28;20056;-89
2023/03/14 20:14:34;;;;;;;11.38;1.75;;;4.50;99.90;;;;;;5063623;28;20052;-87
2023/03/14 20:17:20;;;;;;;10.18;3.25;;;4.60;99.90;;;;;;5056117;28;20532;-86
2023/03/14 20:20:08;;;;;;;8.50;1.48;;;4.60;99.90;;;;;;5042369;28;20055;-88
2023/03/14 20:22:54;;;;;;;13.85;2.90;;;4.60;99.90;;;;;;5079430;28;20052;-87
2023/03/14 20:25:41;;;;;;;9.65;1.42;;;4.50;99.90;;;;;;5071100;28;20053;-87
2023/03/14 20:28:27;;;;;;;11.98;2.08;;;4.40;99.90;;;;;;5072360;28;20088;-89
2023/03/14 20:31:14;;;;;;;8.68;1.50;;;4.50;99.90;;;;;;5078213;28;20404;-89
2023/03/14 20:34:00;;;;;;;10.77;1.33;;;4.50;99.90;;;;;;5056306;28;20087;-90
2023/03/14 20:36:51;;;;;;;10.05;1.70;;;4.40;99.90;;;;;;5071843;28;20508;-88
2023/03/14 20:39:37;;;;;;;17.73;2.42;;;4.40;99.90;;;;;;5057517;28;20584;-90
2023/03/14 20:42:25;;;;;;;12.80;1.90;;;4.40;99.90;;;;;;5080482;28;20603;-91
2023/03/14 20:45:12;;;;;;;8.48;1.67;;;4.40;99.90;;;;;;5085006;28;20071;-89
2023/03/14 20:47:58;;;;;;;18.10;3.35;;;4.30;99.90;;;;;;5061508;28;20135;-89
2023/03/14 20:50:46;;;;;;;9.48;1.92;;;4.40;99.90;;;;;;5042483;28;20053;-89
2023/03/14 20:53:32;;;;;;;5.40;1.17;;;4.40;99.90;;;;;;5057272;28;20048;-90
2023/03/14 20:56:18;;;;;;;10.73;1.83;;;4.40;99.90;;;;;;5052752;28;20485;-90
2023/03/14 20:59:05;;;;;;;17.45;2.33;;;4.40;99.90;;;;;;5053813;28;20674;-91
2023/03/14 21:01:53;;;;;;;14.77;2.67;;;4.30;99.90;;;;;;5061716;28;20241;-88
2023/03/14 21:04:41;;;;;;;9.50;1.48;;;4.30;99.90;;;;;;5059579;28;20078;-90
2023/03/14 21:07:32;;;;;;;11.45;1.63;;;4.40;99.90;;;;;;5056901;28;20424;-90
2023/03/14 21:10:20;;;;;;;11.38;1.60;;;4.30;99.90;;;;;;5061421;28;20075;-89
2023/03/14 21:13:06;;;;;;;8.27;2.38;;;4.40;99.90;;;;;;5040527;28;20143;-91
2023/03/14 21:15:52;;;;;;;12.23;2.53;;;4.40;99.90;;;;;;5071738;28;20078;-89
2023/03/14 21:18:38;;;;;;;8.57;1.85;;;4.40;99.90;;;;;;5055809;28;20447;-89
2023/03/14 21:21:24;;;;;;;10.00;2.17;;;4.40;99.90;;;;;;5071269;28;20497;-86
2023/03/14 21:24:14;;;;;;;8.07;1.40;;;4.30;99.90;;;;;;5081316;28;20048;-87
2023/03/14 21:27:00;;;;;;;6.95;1.38;;;4.30;99.90;;;;;;5071573;28;20051;-91
2023/03/14 21:29:46;;;;;;;9.25;1.98;;;4.30;99.90;;;;;;5039949;28;20063;-89
2023/03/14 21:32:33;;;;;;;6.88;1.23;;;4.20;99.90;;;;;;5055956;28;20512;-89
2023/03/14 21:35:19;;;;;;;13.13;1.60;;;4.20;99.90;;;;;;5078597;28;20064;-88
2023/03/14 21:38:05;;;;;;;11.43;2.03;;;4.20;99.90;;;;;;5060493;28;20052;-90
2023/03/14 21:40:56;;;;;;;6.40;1.52;;;4.30;99.90;;;;;;5052511;28;20056;-88
2023/03/14 21:43:44;;;;;;;9.73;1.10;;;4.30;99.90;;;;;;5081758;28;20078;-85